createdAt,value
2019-03-10T00:00:21.840Z,4.10
2019-03-10T00:02:50.298Z,4.17
2019-03-10T00:05:19.026Z,5.47
2019-03-10T00:07:47.469Z,5.10
2019-03-10T00:10:15.919Z,5.90
2019-03-10T00:12:44.386Z,4.63
2019-03-10T00:15:13.392Z,3.47
2019-03-10T00:17:41.934Z,4.03
2019-03-10T00:20:11.024Z,5.60
2019-03-10T00:22:39.557Z,4.97
2019-03-10T00:25:09.563Z,4.67
2019-03-10T00:27:38.070Z,4.57
2019-03-10T00:30:14.529Z,3.33
2019-03-10T00:32:43.059Z,7.43
2019-03-10T00:35:11.848Z,5.43
2019-03-10T00:37:40.392Z,3.57
2019-03-10T00:40:34.818Z,5.87
2019-03-10T00:43:25.542Z,3.10
2019-03-10T00:46:11.894Z,4.57
2019-03-10T00:49:18.591Z,4.77
2019-03-10T00:52:04.968Z,5.73
2019-03-10T00:54:33.420Z,2.60
2019-03-10T00:57:02.023Z,5.10
2019-03-10T00:59:30.523Z,3.10
2019-03-10T01:01:59.202Z,3.60
2019-03-10T01:04:27.843Z,3.97
2019-03-10T01:06:56.621Z,2.97
2019-03-10T01:09:25.070Z,3.43
2019-03-10T01:11:53.612Z,2.63
2019-03-10T01:14:22.058Z,4.67
2019-03-10T01:16:51.545Z,3.93
2019-03-10T01:19:20.313Z,3.63
2019-03-10T01:21:49.698Z,5.60
2019-03-10T01:24:18.166Z,3.37
2019-03-10T01:26:46.610Z,4.40
2019-03-10T01:29:15.546Z,3.93
2019-03-10T01:31:59.042Z,2.73
2019-03-10T01:34:58.326Z,2.97
2019-03-10T01:37:26.778Z,3.73
2019-03-10T01:39:55.226Z,3.73
2019-03-10T01:42:23.695Z,6.77
2019-03-10T01:44:52.146Z,3.97
2019-03-10T01:47:21.586Z,6.47
2019-03-10T01:49:50.036Z,6.50
2019-03-10T01:52:18.495Z,2.10
2019-03-10T01:54:46.970Z,2.30
2019-03-10T01:57:15.445Z,3.10
2019-03-10T01:59:43.979Z,4.77
2019-03-10T02:02:12.426Z,3.80
2019-03-10T02:04:40.876Z,2.70
2019-03-10T02:07:09.338Z,3.43
2019-03-10T02:09:37.794Z,3.37
2019-03-10T02:12:06.454Z,4.53
2019-03-10T02:14:34.903Z,2.40
2019-03-10T02:17:03.593Z,4.00
2019-03-10T02:19:32.071Z,2.33
2019-03-10T02:22:00.517Z,3.10
2019-03-10T02:24:28.985Z,2.50
2019-03-10T02:26:57.452Z,3.10
2019-03-10T02:29:25.982Z,3.90
2019-03-10T02:31:54.440Z,6.07
2019-03-10T02:34:22.951Z,4.33
2019-03-10T02:36:51.418Z,4.47
2019-03-10T02:39:19.870Z,1.90
2019-03-10T02:41:48.344Z,4.10
2019-03-10T02:44:16.790Z,3.20
2019-03-10T02:46:45.371Z,4.07
2019-03-10T02:49:16.509Z,2.33
2019-03-10T02:51:44.956Z,2.20
2019-03-10T02:54:13.427Z,3.07
2019-03-10T02:56:41.879Z,4.00
2019-03-10T02:59:10.347Z,4.63
2019-03-10T03:01:38.907Z,4.27
2019-03-10T03:04:07.433Z,5.33
2019-03-10T03:06:35.887Z,5.83
2019-03-10T03:09:06.327Z,4.17
2019-03-10T03:11:34.779Z,4.07
2019-03-10T03:14:03.298Z,6.53
2019-03-10T03:16:31.924Z,2.50
2019-03-10T03:19:00.375Z,5.67
2019-03-10T03:21:42.367Z,3.53
2019-03-10T03:23:59.035Z,4.33
2019-03-10T03:26:27.607Z,3.23
2019-03-10T03:28:56.060Z,3.97
2019-03-10T03:31:24.746Z,2.03
2019-03-10T03:33:53.261Z,2.00
2019-03-10T03:36:25.123Z,4.00
2019-03-10T03:39:16.047Z,2.33
2019-03-10T03:41:44.505Z,3.53
2019-03-10T03:44:13.024Z,3.17
2019-03-10T03:46:41.713Z,2.83
2019-03-10T03:49:10.439Z,1.90
2019-03-10T03:51:38.977Z,1.83
2019-03-10T03:54:07.704Z,2.47
2019-03-10T03:56:36.233Z,5.07
2019-03-10T03:59:04.892Z,2.87
2019-03-10T04:01:35.165Z,2.87
2019-03-10T04:04:03.689Z,3.17
2019-03-10T04:06:32.208Z,5.50
2019-03-10T04:09:00.848Z,4.30
2019-03-10T04:11:29.367Z,3.13
2019-03-10T04:13:57.812Z,3.33
2019-03-10T04:16:26.282Z,3.30
2019-03-10T04:18:54.727Z,3.97
2019-03-10T04:21:23.171Z,6.33
2019-03-10T04:23:51.645Z,3.30
2019-03-10T04:26:20.168Z,4.43
2019-03-10T04:28:48.637Z,3.03
2019-03-10T04:31:17.371Z,2.30
2019-03-10T04:33:45.814Z,5.00
2019-03-10T04:36:14.258Z,2.97
2019-03-10T04:38:42.863Z,5.43
2019-03-10T04:41:11.312Z,4.03
2019-03-10T04:43:39.755Z,2.07
2019-03-10T04:46:08.308Z,1.83
2019-03-10T04:48:36.759Z,1.10
2019-03-10T04:51:05.274Z,2.20
2019-03-10T04:53:33.921Z,1.80
2019-03-10T04:56:09.847Z,0.70
2019-03-10T04:58:39.976Z,1.00
2019-03-10T05:01:08.485Z,1.23
2019-03-10T05:03:37.007Z,0.93
2019-03-10T05:06:05.551Z,1.80
2019-03-10T05:08:34.078Z,0.80
2019-03-10T05:11:02.654Z,2.43
2019-03-10T05:13:31.191Z,2.03
2019-03-10T05:15:59.636Z,1.27
2019-03-10T05:18:28.087Z,1.00
2019-03-10T05:20:56.564Z,0.80
2019-03-10T05:23:39.172Z,0.70
2019-03-10T05:26:08.865Z,1.53
2019-03-10T05:28:44.835Z,0.73
2019-03-10T05:31:13.603Z,2.63
2019-03-10T05:33:42.047Z,1.33
2019-03-10T05:36:10.568Z,1.53
2019-03-10T05:38:39.391Z,1.03
2019-03-10T05:41:07.980Z,0.87
2019-03-10T05:43:36.499Z,2.33
2019-03-10T05:46:05.115Z,1.07
2019-03-10T05:48:33.633Z,1.13
2019-03-10T05:51:02.147Z,1.00
2019-03-10T05:53:30.769Z,0.80
2019-03-10T05:55:59.316Z,1.10
2019-03-10T05:58:27.875Z,3.80
2019-03-10T06:00:56.608Z,1.40
2019-03-10T06:03:26.668Z,3.00
2019-03-10T06:05:55.117Z,2.17
2019-03-10T06:08:23.655Z,2.27
2019-03-10T06:10:52.105Z,1.07
2019-03-10T06:13:20.624Z,1.47
2019-03-10T06:15:49.192Z,1.60
2019-03-10T06:18:17.651Z,2.53
2019-03-10T06:20:46.103Z,1.37
2019-03-10T06:23:14.752Z,1.63
2019-03-10T06:25:43.278Z,2.80
2019-03-10T06:28:11.794Z,1.10
2019-03-10T06:30:40.356Z,1.87
2019-03-10T06:33:08.804Z,3.00
2019-03-10T06:35:37.255Z,1.93
2019-03-10T06:38:05.747Z,2.00
2019-03-10T06:40:34.264Z,2.53
2019-03-10T06:43:02.715Z,1.07
2019-03-10T06:45:31.280Z,1.10
2019-03-10T06:47:59.803Z,1.30
2019-03-10T06:50:28.251Z,1.20
2019-03-10T06:52:56.739Z,1.50
2019-03-10T06:55:25.198Z,1.57
2019-03-10T06:57:53.706Z,0.97
2019-03-10T07:00:22.375Z,1.20
2019-03-10T07:02:50.815Z,1.20
2019-03-10T07:05:19.258Z,1.37
2019-03-10T07:07:47.869Z,1.93
2019-03-10T07:10:16.768Z,1.10
2019-03-10T07:12:45.358Z,0.80
2019-03-10T07:15:14.467Z,2.50
2019-03-10T07:17:43.693Z,1.60
2019-03-10T07:20:17.261Z,1.50
2019-03-10T07:22:45.807Z,2.10
2019-03-10T07:25:14.327Z,0.80
2019-03-10T07:27:56.394Z,1.07
2019-03-10T07:30:42.998Z,1.90
2019-03-10T07:33:29.735Z,1.30
2019-03-10T07:36:11.891Z,1.47
2019-03-10T07:38:51.027Z,2.83
2019-03-10T07:41:27.139Z,1.53
2019-03-10T07:44:12.881Z,1.93
2019-03-10T07:46:43.046Z,1.70
2019-03-10T07:49:18.856Z,3.20
2019-03-10T07:52:00.563Z,1.83
2019-03-10T07:54:49.170Z,1.50
2019-03-10T07:57:35.503Z,2.23
2019-03-10T08:00:10.553Z,1.60
2019-03-10T08:02:46.491Z,1.70
2019-03-10T08:05:22.583Z,1.30
2019-03-10T08:08:04.722Z,0.97
2019-03-10T08:10:34.860Z,0.83
2019-03-10T08:13:05.003Z,1.07
2019-03-10T08:15:35.139Z,1.00
2019-03-10T08:18:11.348Z,0.73
2019-03-10T08:20:41.507Z,0.50
2019-03-10T08:23:27.995Z,0.60
2019-03-10T08:25:58.092Z,0.40
2019-03-10T08:28:28.199Z,0.40
2019-03-10T08:31:14.884Z,0.70
2019-03-10T08:33:45.040Z,0.47
2019-03-10T08:36:15.270Z,0.63
2019-03-10T08:39:02.087Z,1.90
2019-03-10T08:41:44.210Z,0.70
2019-03-10T08:44:17.199Z,0.60
2019-03-10T08:47:05.648Z,0.80
2019-03-10T08:49:45.181Z,0.73
2019-03-10T08:52:21.964Z,0.80
2019-03-10T08:55:00.980Z,0.90
2019-03-10T08:57:37.023Z,0.60
2019-03-10T09:00:15.684Z,0.70
2019-03-10T09:02:51.715Z,1.00
2019-03-10T09:05:28.090Z,1.80
2019-03-10T09:07:58.185Z,0.70
2019-03-10T09:10:28.278Z,0.50
2019-03-10T09:13:07.450Z,0.40
2019-03-10T09:15:43.405Z,0.60
2019-03-10T09:18:19.764Z,0.33
2019-03-10T09:20:55.564Z,0.30
2019-03-10T09:23:42.146Z,0.93
2019-03-10T09:26:28.547Z,0.40
2019-03-10T09:29:01.447Z,0.20
2019-03-10T09:31:31.669Z,0.50
2019-03-10T09:34:01.771Z,0.60
2019-03-10T09:36:40.935Z,1.10
2019-03-10T09:39:11.503Z,0.97
2019-03-10T09:41:56.912Z,0.60
2019-03-10T09:44:29.551Z,0.50
2019-03-10T09:46:59.634Z,0.60
2019-03-10T09:49:32.731Z,0.40
2019-03-10T09:52:15.020Z,0.60
2019-03-10T09:54:45.291Z,1.03
2019-03-10T09:57:27.596Z,0.70
2019-03-10T09:59:57.710Z,0.50
2019-03-10T10:02:27.867Z,0.60
2019-03-10T10:05:03.962Z,1.30
2019-03-10T10:07:49.983Z,0.70
2019-03-10T10:10:26.318Z,0.60
2019-03-10T10:12:56.532Z,1.33
2019-03-10T10:15:29.346Z,0.30
2019-03-10T10:18:08.308Z,0.30
2019-03-10T10:20:54.927Z,0.30
2019-03-10T10:23:25.335Z,0.60
2019-03-10T10:25:55.691Z,1.57
2019-03-10T10:28:26.008Z,0.53
2019-03-10T10:31:13.983Z,0.67
2019-03-10T10:33:50.364Z,1.93
2019-03-10T10:36:23.427Z,0.80
2019-03-10T10:38:53.524Z,1.17
2019-03-10T10:41:26.968Z,1.10
2019-03-10T10:43:59.888Z,1.10
2019-03-10T10:46:39.318Z,0.78
2019-03-10T10:49:09.714Z,0.62
2019-03-10T10:51:42.772Z,0.53
2019-03-10T10:54:21.861Z,0.97
2019-03-10T10:56:55.345Z,0.60
2019-03-10T10:59:28.375Z,1.53
2019-03-10T11:01:58.637Z,0.40
2019-03-10T11:04:37.828Z,0.40
2019-03-10T11:07:11.026Z,0.30
2019-03-10T11:09:41.123Z,0.50
2019-03-10T11:12:27.563Z,0.63
2019-03-10T11:15:03.394Z,0.37
2019-03-10T11:17:51.740Z,0.40
2019-03-10T11:20:22.056Z,0.50
2019-03-10T11:22:55.284Z,0.97
2019-03-10T11:25:41.884Z,0.67
2019-03-10T11:28:12.010Z,0.60
2019-03-10T11:30:54.136Z,0.20
2019-03-10T11:33:27.757Z,0.43
2019-03-10T11:36:13.268Z,0.20
2019-03-10T11:38:46.530Z,0.40
2019-03-10T11:41:16.622Z,0.30
2019-03-10T11:43:55.444Z,0.20
2019-03-10T11:46:42.044Z,0.27
2019-03-10T11:49:27.571Z,0.30
2019-03-10T11:52:03.799Z,0.50
2019-03-10T11:54:42.975Z,0.20
2019-03-10T11:57:28.015Z,0.60
2019-03-10T11:59:58.133Z,1.33
2019-03-10T12:02:43.647Z,0.37
2019-03-10T12:05:13.903Z,1.60
2019-03-10T12:07:46.744Z,0.77
2019-03-10T12:10:15.263Z,0.30
2019-03-10T12:12:43.769Z,0.20
2019-03-10T12:15:14.304Z,0.20
2019-03-10T12:17:42.880Z,1.23
2019-03-10T12:20:13.302Z,0.60
2019-03-10T12:22:41.897Z,0.30
2019-03-10T12:25:12.283Z,0.30
2019-03-10T12:27:41.026Z,0.30
2019-03-10T12:30:14.464Z,1.90
2019-03-10T12:32:42.946Z,1.30
2019-03-10T12:35:11.562Z,1.00
2019-03-10T12:37:40.118Z,0.93
2019-03-10T12:40:10.702Z,1.20
2019-03-10T12:42:39.246Z,0.53
2019-03-10T12:45:12.103Z,1.23
2019-03-10T12:47:40.560Z,0.93
2019-03-10T12:50:13.418Z,1.30
2019-03-10T12:52:41.939Z,1.60
2019-03-10T12:55:10.827Z,0.30
2019-03-10T12:57:39.313Z,0.27
2019-03-10T13:00:15.548Z,0.57
2019-03-10T13:02:44.204Z,1.30
2019-03-10T13:05:12.949Z,1.03
2019-03-10T13:07:41.467Z,1.33
2019-03-10T13:10:12.455Z,1.27
2019-03-10T13:12:40.132Z,0.70
2019-03-10T13:15:11.204Z,1.30
2019-03-10T13:17:39.890Z,1.70
2019-03-10T13:20:10.599Z,1.13
2019-03-10T13:22:39.123Z,0.80
2019-03-10T13:25:12.500Z,1.70
2019-03-10T13:27:40.954Z,4.30
2019-03-10T13:30:16.530Z,2.03
2019-03-10T13:32:45.188Z,0.83
2019-03-10T13:35:14.034Z,1.13
2019-03-10T13:37:42.507Z,1.57
2019-03-10T13:40:13.207Z,1.30
2019-03-10T13:42:41.743Z,2.07
2019-03-10T13:45:12.810Z,1.53
2019-03-10T13:47:41.258Z,1.70
2019-03-10T13:50:12.557Z,1.10
2019-03-10T13:52:41.343Z,2.50
2019-03-10T13:55:10.311Z,1.27
2019-03-10T13:57:38.764Z,3.63
2019-03-10T14:00:23.278Z,2.83
2019-03-10T14:02:52.160Z,3.83
2019-03-10T14:05:20.693Z,2.67
2019-03-10T14:07:49.515Z,3.10
2019-03-10T14:10:18.043Z,0.73
2019-03-10T14:12:46.715Z,3.37
2019-03-10T14:15:16.739Z,2.43
2019-03-10T14:17:45.258Z,1.73
2019-03-10T14:20:15.350Z,1.93
2019-03-10T14:22:43.963Z,2.60
2019-03-10T14:25:13.950Z,3.13
2019-03-10T14:27:42.571Z,3.53
2019-03-10T14:30:16.367Z,3.57
2019-03-10T14:32:44.958Z,4.30
2019-03-10T14:35:14.650Z,4.73
2019-03-10T14:37:43.470Z,3.13
2019-03-10T14:40:16.808Z,5.27
2019-03-10T14:42:45.467Z,3.67
2019-03-10T14:45:16.266Z,6.13
2019-03-10T14:47:44.782Z,6.33
2019-03-10T14:50:15.486Z,5.67
2019-03-10T14:52:44.031Z,4.67
2019-03-10T14:55:17.505Z,3.67
2019-03-10T14:57:46.028Z,6.27
2019-03-10T15:00:22.668Z,6.07
2019-03-10T15:02:51.198Z,8.70
2019-03-10T15:05:19.794Z,5.63
2019-03-10T15:07:48.352Z,4.78
2019-03-10T15:10:17.058Z,3.10
2019-03-10T15:12:45.597Z,4.57
2019-03-10T15:15:22.807Z,3.27
2019-03-10T15:17:48.727Z,3.13
2019-03-10T15:20:18.116Z,4.13
2019-03-10T15:22:46.660Z,4.07
2019-03-10T15:25:19.709Z,4.50
2019-03-10T15:27:48.366Z,3.77
2019-03-10T15:30:26.895Z,4.13
2019-03-10T15:32:55.621Z,6.77
2019-03-10T15:35:24.077Z,5.10
2019-03-10T15:37:52.871Z,5.77
2019-03-10T15:40:21.460Z,4.67
2019-03-10T15:42:49.992Z,3.23
2019-03-10T15:45:19.271Z,2.83
2019-03-10T15:47:47.719Z,3.33
2019-03-10T15:50:22.096Z,3.20
2019-03-10T15:52:50.582Z,5.20
2019-03-10T15:55:19.038Z,3.73
2019-03-10T15:57:50.532Z,4.67
2019-03-10T16:00:23.659Z,5.53
2019-03-10T16:02:52.189Z,5.57
2019-03-10T16:05:20.819Z,5.43
2019-03-10T16:07:49.387Z,4.93
2019-03-10T16:10:18.177Z,5.67
2019-03-10T16:12:46.633Z,4.13
2019-03-10T16:15:23.911Z,4.63
2019-03-10T16:17:52.451Z,4.67
2019-03-10T16:20:21.041Z,4.27
2019-03-10T16:22:49.756Z,6.07
2019-03-10T16:25:18.874Z,6.90
2019-03-10T16:27:49.737Z,2.73
2019-03-10T16:30:27.861Z,3.63
2019-03-10T16:32:56.395Z,2.93
2019-03-10T16:35:24.914Z,4.93
2019-03-10T16:37:53.513Z,2.97
2019-03-10T16:40:22.385Z,4.70
2019-03-10T16:42:51.120Z,5.63
2019-03-10T16:45:24.519Z,2.97
2019-03-10T16:47:53.039Z,3.07
2019-03-10T16:50:22.831Z,3.87
2019-03-10T16:52:51.395Z,6.47
2019-03-10T16:55:20.086Z,2.73
2019-03-10T16:57:48.609Z,4.00
2019-03-10T17:00:19.768Z,7.53
2019-03-10T17:02:49.025Z,3.53
2019-03-10T17:05:22.633Z,4.20
2019-03-10T17:07:51.615Z,4.83
2019-03-10T17:10:21.475Z,2.53
2019-03-10T17:12:50.035Z,2.70
2019-03-10T17:15:22.743Z,3.53
2019-03-10T17:17:51.340Z,2.33
2019-03-10T17:20:20.335Z,3.90
2019-03-10T17:22:49.422Z,2.60
2019-03-10T17:25:18.242Z,1.00
2019-03-10T17:27:46.703Z,4.20
2019-03-10T17:30:25.779Z,2.53
2019-03-10T17:32:54.239Z,3.33
2019-03-10T17:35:22.766Z,2.70
2019-03-10T17:37:51.245Z,6.27
2019-03-10T17:40:21.061Z,2.50
2019-03-10T17:42:49.782Z,3.93
2019-03-10T17:45:19.689Z,4.20
2019-03-10T17:47:48.134Z,4.33
2019-03-10T17:50:17.723Z,5.17
2019-03-10T17:52:46.952Z,4.57
2019-03-10T17:55:17.820Z,2.17
2019-03-10T17:57:46.266Z,2.97
2019-03-10T18:00:18.283Z,3.07
2019-03-10T18:02:46.807Z,5.80
2019-03-10T18:05:15.408Z,4.67
2019-03-10T18:07:43.894Z,1.97
2019-03-10T18:10:14.263Z,6.87
2019-03-10T18:12:42.788Z,6.07
2019-03-10T18:15:13.229Z,3.63
2019-03-10T18:17:41.872Z,4.37
2019-03-10T18:20:19.252Z,4.80
2019-03-10T18:22:48.015Z,2.47
2019-03-10T18:25:16.529Z,3.03
2019-03-10T18:27:45.398Z,2.33
2019-03-10T18:30:26.968Z,3.73
2019-03-10T18:32:55.938Z,3.30
2019-03-10T18:35:24.432Z,1.60
2019-03-10T18:37:52.930Z,1.83
2019-03-10T18:40:22.542Z,2.00
2019-03-10T18:42:51.236Z,3.00
2019-03-10T18:45:20.523Z,1.87
2019-03-10T18:47:49.117Z,2.33
2019-03-10T18:50:28.108Z,0.63
2019-03-10T18:52:56.588Z,2.37
2019-03-10T18:55:25.354Z,1.63
2019-03-10T18:57:53.863Z,4.33
2019-03-10T19:00:32.231Z,1.93
2019-03-10T19:03:00.739Z,2.37
2019-03-10T19:05:29.183Z,3.73
2019-03-10T19:07:57.916Z,1.63
2019-03-10T19:10:26.444Z,1.13
2019-03-10T19:12:55.035Z,1.67
2019-03-10T19:15:28.183Z,4.20
2019-03-10T19:17:56.766Z,2.00
2019-03-10T19:20:25.283Z,2.47
2019-03-10T19:22:53.999Z,3.97
2019-03-10T19:25:22.513Z,3.60
2019-03-10T19:27:51.056Z,4.10
2019-03-10T19:30:21.927Z,2.07
2019-03-10T19:32:50.610Z,7.50
2019-03-10T19:35:19.126Z,1.77
2019-03-10T19:37:47.930Z,3.23
2019-03-10T19:40:17.687Z,3.47
2019-03-10T19:42:46.150Z,2.23
2019-03-10T19:45:18.960Z,4.03
2019-03-10T19:47:47.494Z,2.63
2019-03-10T19:50:27.561Z,4.13
2019-03-10T19:52:56.647Z,3.20
2019-03-10T19:55:25.412Z,4.13
2019-03-10T19:57:54.203Z,1.37
2019-03-10T20:00:23.188Z,2.17
2019-03-10T20:02:51.641Z,4.90
2019-03-10T20:05:20.111Z,5.30
2019-03-10T20:07:48.631Z,3.70
2019-03-10T20:10:19.284Z,7.70
2019-03-10T20:12:47.755Z,2.93
2019-03-10T20:15:25.664Z,3.73
2019-03-10T20:17:54.203Z,3.20
2019-03-10T20:20:34.003Z,2.77
2019-03-10T20:23:02.557Z,4.10
2019-03-10T20:25:31.080Z,3.23
2019-03-10T20:27:59.526Z,3.27
2019-03-10T20:30:28.551Z,1.63
2019-03-10T20:32:57.251Z,3.23
2019-03-10T20:35:26.022Z,4.53
2019-03-10T20:37:54.621Z,2.93
2019-03-10T20:40:26.675Z,6.60
2019-03-10T20:42:55.198Z,3.13
2019-03-10T20:45:24.664Z,4.17
2019-03-10T20:47:56.088Z,2.70
2019-03-10T20:50:23.608Z,1.70
2019-03-10T20:52:52.324Z,3.63
2019-03-10T20:55:20.776Z,2.50
2019-03-10T20:57:49.299Z,1.50
2019-03-10T21:00:28.450Z,4.27
2019-03-10T21:02:57.103Z,2.73
2019-03-10T21:05:25.636Z,2.40
2019-03-10T21:07:54.107Z,4.87
2019-03-10T21:10:26.774Z,4.40
2019-03-10T21:12:55.360Z,1.27
2019-03-10T21:15:26.297Z,3.70
2019-03-10T21:17:54.438Z,7.57
2019-03-10T21:20:24.226Z,7.27
2019-03-10T21:22:52.732Z,6.07
2019-03-10T21:25:26.689Z,6.47
2019-03-10T21:27:55.515Z,5.27
2019-03-10T21:30:25.502Z,4.63
2019-03-10T21:32:54.018Z,7.13
2019-03-10T21:35:22.545Z,4.77
2019-03-10T21:37:51.091Z,4.30
2019-03-10T21:40:25.163Z,7.20
2019-03-10T21:42:53.611Z,9.00
2019-03-10T21:45:22.108Z,5.00
2019-03-10T21:47:50.688Z,3.47
2019-03-10T21:50:19.511Z,7.03
2019-03-10T21:52:48.321Z,3.03
2019-03-10T21:55:17.809Z,5.53
2019-03-10T21:57:46.262Z,5.10
2019-03-10T22:00:18.530Z,2.93
2019-03-10T22:02:46.980Z,3.47
2019-03-10T22:05:16.422Z,7.83
2019-03-10T22:07:45.471Z,6.47
2019-03-10T22:10:27.103Z,7.60
2019-03-10T22:12:49.223Z,8.07
2019-03-10T22:15:18.711Z,4.67
2019-03-10T22:17:47.365Z,5.53
2019-03-10T22:20:17.850Z,2.50
2019-03-10T22:22:49.791Z,3.77
2019-03-10T22:25:17.693Z,11.73
2019-03-10T22:27:46.588Z,5.67
2019-03-10T22:30:17.243Z,8.13
2019-03-10T22:32:45.759Z,8.30
2019-03-10T22:35:14.388Z,8.03
2019-03-10T22:37:43.046Z,5.70
2019-03-10T22:40:13.883Z,9.87
2019-03-10T22:42:42.359Z,5.47
2019-03-10T22:45:13.363Z,4.87
2019-03-10T22:47:41.984Z,4.23
2019-03-10T22:50:12.668Z,6.53
2019-03-10T22:52:41.359Z,6.10
2019-03-10T22:55:11.284Z,7.53
2019-03-10T22:57:39.811Z,5.60
2019-03-10T23:00:39.317Z,7.30
2019-03-10T23:03:07.899Z,6.63
2019-03-10T23:05:36.343Z,5.13
2019-03-10T23:08:04.931Z,4.50
2019-03-10T23:10:33.542Z,6.20
2019-03-10T23:13:01.991Z,7.17
2019-03-10T23:15:30.613Z,7.37
2019-03-10T23:17:59.177Z,5.60
2019-03-10T23:20:27.696Z,4.27
2019-03-10T23:22:56.143Z,6.73
2019-03-10T23:25:24.708Z,7.83
2019-03-10T23:27:53.374Z,8.80
2019-03-10T23:30:21.827Z,8.60
2019-03-10T23:32:50.421Z,5.80
2019-03-10T23:35:18.972Z,4.07
2019-03-10T23:37:47.457Z,6.70
2019-03-10T23:40:17.659Z,5.93
2019-03-10T23:42:46.115Z,7.00
2019-03-10T23:45:16.016Z,6.83
2019-03-10T23:47:44.656Z,8.77
2019-03-10T23:50:14.853Z,11.47
2019-03-10T23:52:43.298Z,8.43
2019-03-10T23:55:13.200Z,6.63
2019-03-10T23:57:41.723Z,5.83
